Time;durP1;ratioP1;P1;durP2;ratioP2;P2;SDS_P1;SDS_P2;PMS_P1;PMS_P2;Temp;Humidity;BMP_temperature;BMP_pressure;BME280_temperature;BME280_humidity;BME280_pressure;Samples;Min_cycle;Max_cycle;Signal;HPM_P1;HPM_P2
2022/12/21 00:01:10;;;;;;;59.35;38.13;;;9.40;99.90;;;;;;5088337;28;20050;-73
2022/12/21 00:03:36;;;;;;;63.95;36.55;;;9.40;99.90;;;;;;5060237;28;20109;-74
2022/12/21 00:06:03;;;;;;;65.30;38.40;;;9.40;99.90;;;;;;5076828;28;20139;-73
2022/12/21 00:08:30;;;;;;;61.72;36.50;;;9.40;99.90;;;;;;5066656;28;20101;-73
2022/12/21 00:10:59;;;;;;;64.00;39.10;;;9.40;99.90;;;;;;5087415;28;20044;-73
2022/12/21 00:13:25;;;;;;;68.05;38.78;;;9.40;99.90;;;;;;5100615;28;20471;-73
2022/12/21 00:16:04;;;;;;;66.60;37.80;;;9.40;99.90;;;;;;5083376;28;20051;-73
2022/12/21 00:18:32;;;;;;;55.30;36.58;;;9.40;99.90;;;;;;5084085;28;20123;-73
2022/12/21 00:20:58;;;;;;;;;;;9.30;99.90;;;;;;5087179;28;20055;-74
2022/12/21 00:23:24;;;;;;;61.13;35.53;;;9.30;99.90;;;;;;5095313;28;19924;-74
2022/12/21 00:25:49;;;;;;;59.35;37.75;;;9.30;99.90;;;;;;5086321;28;20040;-74
2022/12/21 00:28:15;;;;;;;55.65;35.25;;;9.30;99.90;;;;;;5079159;28;20075;-73
2022/12/21 00:30:40;;;;;;;56.90;37.50;;;9.30;99.90;;;;;;5086399;28;20052;-73
2022/12/21 00:33:06;;;;;;;63.10;38.20;;;9.20;99.90;;;;;;5085776;28;20040;-73
2022/12/21 00:35:32;;;;;;;53.15;35.88;;;9.30;99.90;;;;;;5065311;28;20040;-74
2022/12/21 00:37:57;;;;;;;68.28;37.75;;;9.20;99.90;;;;;;5080285;28;20637;-74
2022/12/21 00:40:23;;;;;;;66.15;38.20;;;9.20;99.90;;;;;;5060520;28;20126;-73
2022/12/21 00:42:49;;;;;;;66.63;37.08;;;9.20;99.90;;;;;;5079609;28;20705;-73
2022/12/21 00:45:14;;;;;;;60.20;36.97;;;9.20;99.90;;;;;;5076799;28;20064;-73
2022/12/21 00:47:40;;;;;;;58.20;36.40;;;9.20;99.90;;;;;;5077105;28;20117;-73
2022/12/21 00:50:06;;;;;;;61.47;37.55;;;9.10;99.90;;;;;;5084942;28;20127;-74
2022/12/21 00:52:32;;;;;;;64.75;39.35;;;9.10;99.90;;;;;;5068333;28;20048;-73
2022/12/21 00:54:57;;;;;;;58.45;36.10;;;9.20;99.90;;;;;;5084046;28;20048;-74
2022/12/21 00:57:23;;;;;;;61.30;37.28;;;9.10;99.90;;;;;;5079818;28;20123;-73
2022/12/21 00:59:48;;;;;;;63.15;37.50;;;9.00;99.90;;;;;;5081436;28;20051;-73
2022/12/21 01:02:14;;;;;;;59.30;37.33;;;9.10;99.90;;;;;;5082854;28;20388;-73
2022/12/21 01:04:40;;;;;;;52.80;33.38;;;9.00;99.90;;;;;;5082223;28;20051;-73
2022/12/21 01:07:05;;;;;;;53.83;34.05;;;9.00;99.90;;;;;;5080975;28;20108;-73
2022/12/21 01:09:31;;;;;;;56.92;34.38;;;8.90;99.90;;;;;;5083411;28;20415;-73
2022/12/21 01:11:56;;;;;;;49.15;29.83;;;8.80;99.90;;;;;;5084645;28;20040;-73
2022/12/21 01:14:22;;;;;;;58.08;34.10;;;8.80;99.90;;;;;;5080136;28;20051;-73
2022/12/21 01:16:48;;;;;;;54.90;33.70;;;8.80;99.90;;;;;;5085357;28;20104;-73
2022/12/21 01:19:13;;;;;;;55.10;32.60;;;8.80;99.90;;;;;;5063923;28;20032;-73
2022/12/21 01:21:39;;;;;;;56.67;32.67;;;8.80;99.90;;;;;;5081785;28;20064;-73
2022/12/21 01:24:05;;;;;;;56.13;32.70;;;8.80;99.90;;;;;;5082474;28;20140;-73
2022/12/21 01:26:30;;;;;;;52.83;32.00;;;8.70;99.90;;;;;;5065090;28;20076;-73
2022/12/21 01:28:57;;;;;;;53.97;31.92;;;8.70;99.90;;;;;;5084375;28;20480;-73
2022/12/21 01:31:22;;;;;;;76.35;35.90;;;8.70;99.90;;;;;;5084549;28;20039;-73
2022/12/21 01:33:48;;;;;;;69.40;33.78;;;8.60;99.90;;;;;;5066786;28;20101;-73
2022/12/21 01:36:17;;;;;;;59.65;32.90;;;8.70;99.90;;;;;;5080875;28;20040;-73
2022/12/21 01:38:44;;;;;;;65.22;35.63;;;8.60;99.90;;;;;;5087551;28;20040;-73
2022/12/21 01:41:22;;;;;;;74.15;36.85;;;8.60;99.90;;;;;;5087413;28;20036;-73
2022/12/21 01:43:51;;;;;;;65.38;36.80;;;8.60;99.90;;;;;;5098532;27;20544;-73
2022/12/21 01:46:23;;;;;;;74.63;37.28;;;8.70;99.90;;;;;;5086500;28;20040;-73
2022/12/21 01:49:11;;;;;;;91.30;39.13;;;8.70;99.90;;;;;;5069947;28;20055;-73
2022/12/21 01:51:38;;;;;;;77.65;40.50;;;8.70;99.90;;;;;;5070004;28;20043;-73
2022/12/21 01:54:31;;;;;;;78.43;38.27;;;8.80;99.90;;;;;;5080161;28;20125;-73
2022/12/21 01:57:00;;;;;;;64.72;37.72;;;8.70;99.90;;;;;;5069541;28;20083;-73
2022/12/21 01:59:31;;;;;;;75.43;39.25;;;8.80;99.90;;;;;;5082166;28;20040;-73
2022/12/21 02:02:07;;;;;;;66.50;38.08;;;8.80;99.90;;;;;;5100356;28;20145;-73
2022/12/21 02:04:33;;;;;;;73.28;39.58;;;8.70;99.90;;;;;;5086944;28;21555;-72
2022/12/21 02:06:59;;;;;;;68.63;38.65;;;8.70;99.90;;;;;;5083257;28;20491;-73
2022/12/21 02:09:31;;;;;;;77.90;39.42;;;8.70;99.90;;;;;;5081278;28;20600;-73
2022/12/21 02:11:59;;;;;;;59.45;37.42;;;8.80;99.90;;;;;;5097995;28;20025;-73
2022/12/21 02:14:26;;;;;;;60.30;37.53;;;8.80;99.90;;;;;;5088874;28;20049;-73
2022/12/21 02:17:22;;;;;;;62.90;35.97;;;8.70;99.90;;;;;;5082245;28;20043;-73
2022/12/21 02:20:12;;;;;;;59.20;36.65;;;8.70;99.90;;;;;;5085136;28;20047;-73
2022/12/21 02:23:06;;;;;;;73.30;39.25;;;8.70;99.90;;;;;;5086870;28;20040;-73
2022/12/21 02:25:53;;;;;;;65.22;36.28;;;8.70;99.90;;;;;;5085337;28;20040;-73
2022/12/21 02:28:45;;;;;;;61.90;36.97;;;8.70;99.90;;;;;;5068139;28;20082;-73
2022/12/21 02:31:36;;;;;;;70.82;37.85;;;8.70;99.90;;;;;;5085579;28;20697;-73
2022/12/21 02:34:09;;;;;;;66.65;36.15;;;8.70;99.90;;;;;;5082871;28;20056;-73
2022/12/21 02:36:56;;;;;;;64.55;37.13;;;8.70;99.90;;;;;;5086116;28;20051;-73
2022/12/21 02:39:43;;;;;;;;;;;8.70;99.90;;;;;;5067847;28;20040;-73
2022/12/21 02:46:06;;;;;;;67.38;37.42;;;8.70;99.90;;;;;;5068078;28;20115;-75
2022/12/21 02:48:59;;;;;;;74.32;39.20;;;8.70;99.90;;;;;;5075112;28;20060;-75
2022/12/21 02:51:37;;;;;;;77.47;38.45;;;8.60;99.90;;;;;;5027919;28;1085033;-75
2022/12/21 02:54:03;;;;;;;62.03;36.05;;;8.60;99.90;;;;;;5080138;28;20491;-75
2022/12/21 02:56:29;;;;;;;59.13;35.00;;;8.60;99.90;;;;;;5085949;28;20052;-75
2022/12/21 02:58:55;;;;;;;91.40;39.83;;;8.70;99.90;;;;;;5069971;28;20048;-75
2022/12/21 03:01:45;;;;;;;64.18;35.72;;;8.60;99.90;;;;;;5085586;28;20043;-75
2022/12/21 03:04:13;;;;;;;82.65;37.45;;;8.60;99.90;;;;;;5080923;28;20035;-75
2022/12/21 03:06:51;;;;;;;63.85;34.13;;;8.50;99.90;;;;;;5085937;28;20044;-74
2022/12/21 03:09:38;;;;;;;68.85;34.92;;;8.60;99.90;;;;;;5069587;28;20134;-75
2022/12/21 03:12:18;;;;;;;102.35;34.15;;;8.60;99.90;;;;;;5081973;28;20043;-74
2022/12/21 03:15:40;;;;;;;53.47;29.42;;;8.50;99.90;;;;;;5060877;28;20092;-74
2022/12/21 03:18:33;;;;;;;177.23;31.48;;;8.50;99.90;;;;;;5021878;28;20045;-74
2022/12/21 03:21:01;;;;;;;45.08;25.80;;;8.50;99.90;;;;;;5014260;28;20048;-74
2022/12/21 03:23:36;;;;;;;48.05;25.13;;;8.30;99.90;;;;;;5073391;28;20056;-74
2022/12/21 03:26:05;;;;;;;44.42;24.80;;;8.20;99.90;;;;;;5087722;28;20102;-75
2022/12/21 03:28:35;;;;;;;44.65;24.77;;;8.20;99.90;;;;;;5082428;28;20048;-75
2022/12/21 03:31:10;;;;;;;47.13;24.98;;;8.20;99.90;;;;;;5085684;28;20127;-74
2022/12/21 03:33:40;;;;;;;47.08;25.63;;;8.30;99.90;;;;;;5068019;28;20096;-75
2022/12/21 03:36:15;;;;;;;66.50;27.98;;;8.20;99.90;;;;;;5086248;28;20491;-74
2022/12/21 03:38:46;;;;;;;40.03;23.48;;;8.20;99.90;;;;;;5089371;27;20044;-75
2022/12/21 03:41:24;;;;;;;43.35;24.88;;;8.10;99.90;;;;;;5062537;28;20095;-74
2022/12/21 03:43:54;;;;;;;43.97;24.70;;;8.10;99.90;;;;;;5093621;27;20044;-75
2022/12/21 03:46:42;;;;;;;45.30;23.88;;;8.10;99.90;;;;;;5083211;28;20494;-75
2022/12/21 03:49:20;;;;;;;53.45;25.90;;;8.10;99.90;;;;;;5085715;28;20056;-75
2022/12/21 03:52:01;;;;;;;52.33;24.88;;;8.00;99.90;;;;;;5081055;28;20048;-75
2022/12/21 03:54:33;;;;;;;51.85;25.15;;;8.10;99.90;;;;;;5081562;28;20048;-75
2022/12/21 03:56:59;;;;;;;56.97;26.25;;;8.10;99.90;;;;;;5065466;28;20432;-75
2022/12/21 03:59:25;;;;;;;54.00;25.15;;;8.20;99.90;;;;;;5068650;28;20048;-75
2022/12/21 04:02:10;;;;;;;55.40;26.00;;;8.10;99.90;;;;;;5079880;28;20154;-76
2022/12/21 04:04:51;;;;;;;61.95;27.08;;;8.10;99.90;;;;;;5068100;28;20048;-75
2022/12/21 04:07:24;;;;;;;53.08;25.77;;;8.10;99.90;;;;;;5067125;28;20040;-75
2022/12/21 04:10:06;;;;;;;47.58;25.17;;;8.10;99.90;;;;;;5064980;28;20043;-75
2022/12/21 04:12:38;;;;;;;56.40;25.23;;;8.10;99.90;;;;;;5064223;28;20054;-75
2022/12/21 04:15:08;;;;;;;66.13;28.42;;;8.10;99.90;;;;;;5070501;28;20039;-75
2022/12/21 04:17:34;;;;;;;53.55;27.08;;;8.10;99.90;;;;;;5067607;28;20056;-75
2022/12/21 04:20:02;;;;;;;70.32;29.90;;;8.10;99.90;;;;;;5084933;28;20087;-76
2022/12/21 04:28:07;;;;;;;49.70;26.50;;;8.10;99.90;;;;;;5097852;28;20542;-75
2022/12/21 04:30:44;;;;;;;52.75;26.38;;;8.10;99.90;;;;;;5081486;28;20067;-75
2022/12/21 04:33:12;;;;;;;51.67;27.63;;;8.10;99.90;;;;;;5085707;28;20109;-75
2022/12/21 04:37:30;;;;;;;51.05;25.35;;;8.10;99.90;;;;;;5067682;28;20051;-74
2022/12/21 04:38:25;;;;;;;45.75;25.38;;;8.10;99.90;;;;;;5084592;28;20597;-75
2022/12/21 04:40:55;;;;;;;58.58;26.92;;;8.00;99.90;;;;;;5081767;28;20040;-75
2022/12/21 04:43:21;;;;;;;47.72;24.77;;;8.00;99.90;;;;;;5082303;28;20058;-75
2022/12/21 04:45:47;;;;;;;65.68;25.33;;;8.00;99.90;;;;;;5084833;28;20468;-75
2022/12/21 04:48:14;;;;;;;49.70;24.73;;;8.10;99.90;;;;;;5062871;28;20055;-75
2022/12/21 04:50:40;;;;;;;61.10;28.42;;;8.00;99.90;;;;;;5084419;28;20055;-75
2022/12/21 04:53:05;;;;;;;52.63;28.27;;;8.00;99.90;;;;;;5062564;28;20082;-75
2022/12/21 04:55:31;;;;;;;63.95;31.67;;;8.00;99.90;;;;;;5086463;28;20044;-75
2022/12/21 04:57:57;;;;;;;64.30;31.48;;;8.00;99.90;;;;;;5084831;28;20036;-75
2022/12/21 05:00:23;;;;;;;71.97;32.40;;;8.10;99.90;;;;;;5065980;28;20085;-75
2022/12/21 05:02:48;;;;;;;57.63;30.80;;;8.00;99.90;;;;;;5082532;28;20097;-75
2022/12/21 05:05:14;;;;;;;57.38;29.85;;;8.10;99.90;;;;;;5085542;28;20036;-75
2022/12/21 05:07:39;;;;;;;57.72;30.23;;;8.10;99.90;;;;;;5062492;28;20054;-75
2022/12/21 05:10:06;;;;;;;58.47;30.02;;;8.00;99.90;;;;;;5082682;28;20125;-75
2022/12/21 05:12:31;;;;;;;81.05;32.42;;;8.10;99.90;;;;;;5082337;28;20748;-75
2022/12/21 05:14:57;;;;;;;91.68;35.33;;;8.10;99.90;;;;;;5084934;28;20038;-75
2022/12/21 05:17:23;;;;;;;75.20;33.05;;;8.10;99.90;;;;;;5083803;28;20047;-75
2022/12/21 05:19:48;;;;;;;72.95;33.65;;;8.10;99.90;;;;;;5065091;28;20043;-75
2022/12/21 05:22:20;;;;;;;68.07;32.50;;;8.10;99.90;;;;;;5083711;28;20487;-75
2022/12/21 05:24:45;;;;;;;113.13;34.75;;;8.10;99.90;;;;;;5068261;28;20040;-75
2022/12/21 05:27:12;;;;;;;111.53;33.95;;;8.10;99.90;;;;;;5062733;28;20056;-75
2022/12/21 05:29:38;;;;;;;108.13;36.30;;;8.10;99.90;;;;;;5082095;28;20507;-75
2022/12/21 05:32:04;;;;;;;147.60;34.92;;;8.10;99.90;;;;;;5078057;28;20040;-75
2022/12/21 05:34:30;;;;;;;120.45;35.60;;;8.10;99.90;;;;;;5068059;28;20044;-75
2022/12/21 05:36:55;;;;;;;103.88;34.00;;;8.10;99.90;;;;;;5058014;28;20510;-75
2022/12/21 05:39:21;;;;;;;154.77;37.20;;;8.10;99.90;;;;;;5092154;28;20067;-75
2022/12/21 05:41:47;;;;;;;133.05;34.60;;;8.10;99.90;;;;;;5095792;28;20746;-74
2022/12/21 05:44:12;;;;;;;147.43;37.15;;;8.00;99.90;;;;;;5083516;28;20034;-75
2022/12/21 05:46:38;;;;;;;188.80;36.03;;;8.00;99.90;;;;;;5087357;28;20044;-75
2022/12/21 05:49:03;;;;;;;140.43;35.92;;;8.00;99.90;;;;;;5070943;28;20471;-75
2022/12/21 05:51:29;;;;;;;142.10;36.50;;;8.00;99.90;;;;;;5087202;28;20059;-75
2022/12/21 05:53:56;;;;;;;108.18;35.70;;;8.00;99.90;;;;;;5085403;28;20047;-75
2022/12/21 05:56:22;;;;;;;91.50;33.63;;;7.90;99.90;;;;;;5082464;28;20032;-75
2022/12/21 05:58:47;;;;;;;122.90;36.08;;;8.00;99.90;;;;;;5087680;28;20135;-76
2022/12/21 06:01:14;;;;;;;101.57;35.13;;;8.00;99.90;;;;;;5069324;28;20131;-75
2022/12/21 06:03:40;;;;;;;100.65;35.95;;;8.00;99.90;;;;;;5089130;28;20044;-75
2022/12/21 06:06:14;;;;;;;85.38;35.17;;;8.00;99.90;;;;;;5084171;28;20044;-74
2022/12/21 06:08:40;;;;;;;56.63;32.83;;;8.10;99.90;;;;;;5064066;28;20105;-75
2022/12/21 06:11:12;;;;;;;179.05;41.67;;;8.00;99.90;;;;;;5069127;28;20574;-75
2022/12/21 06:13:37;;;;;;;106.65;35.30;;;8.00;99.90;;;;;;5086095;28;20044;-75
2022/12/21 06:16:16;;;;;;;88.00;34.42;;;8.00;99.90;;;;;;5085511;28;20086;-75
2022/12/21 06:18:41;;;;;;;126.60;36.30;;;8.00;99.90;;;;;;5081909;28;20048;-75
2022/12/21 06:21:09;;;;;;;111.47;37.03;;;8.00;99.90;;;;;;5081623;28;20437;-75
2022/12/21 06:23:35;;;;;;;141.77;38.70;;;8.00;99.90;;;;;;5082694;28;20047;-75
2022/12/21 06:26:03;;;;;;;125.43;37.38;;;7.90;99.90;;;;;;5087024;28;20455;-75
2022/12/21 06:28:29;;;;;;;88.82;39.90;;;8.00;99.90;;;;;;5087145;28;20058;-75
2022/12/21 06:31:00;;;;;;;120.40;43.70;;;8.00;99.90;;;;;;5067261;28;20398;-75
2022/12/21 06:33:26;;;;;;;135.05;42.58;;;8.00;99.90;;;;;;5081246;28;20607;-75
2022/12/21 06:35:55;;;;;;;115.65;42.80;;;8.00;99.90;;;;;;5085020;28;20048;-75
2022/12/21 06:38:21;;;;;;;160.27;44.58;;;8.10;99.90;;;;;;5100606;28;20149;-75
2022/12/21 06:40:56;;;;;;;198.07;47.45;;;8.00;99.90;;;;;;5083301;28;20699;-75
2022/12/21 06:43:23;;;;;;;119.25;46.70;;;8.10;99.90;;;;;;5085547;28;20048;-75
2022/12/21 06:45:53;;;;;;;127.47;46.78;;;8.10;99.90;;;;;;5066877;28;20549;-74
2022/12/21 06:48:19;;;;;;;102.68;45.53;;;8.10;99.90;;;;;;5078404;28;20036;-73
2022/12/21 06:50:49;;;;;;;108.53;46.10;;;8.10;99.90;;;;;;5086557;28;20228;-74
2022/12/21 06:53:18;;;;;;;98.60;44.63;;;8.10;99.90;;;;;;5066116;28;20117;-73
2022/12/21 06:55:43;;;;;;;128.63;48.60;;;8.10;99.90;;;;;;5085621;28;20166;-73
2022/12/21 06:58:09;;;;;;;218.85;51.05;;;8.20;99.90;;;;;;5088419;28;20114;-75
2022/12/21 07:00:35;;;;;;;102.07;44.58;;;8.10;99.90;;;;;;5082172;28;20127;-74
2022/12/21 07:03:01;;;;;;;98.63;44.13;;;8.10;99.90;;;;;;5088214;28;20130;-75
2022/12/21 07:05:28;;;;;;;110.45;46.00;;;8.10;99.90;;;;;;5068943;28;20043;-74
2022/12/21 07:07:53;;;;;;;118.10;48.75;;;8.10;99.90;;;;;;5082634;28;20048;-75
2022/12/21 07:10:19;;;;;;;113.28;47.22;;;8.10;99.90;;;;;;5062508;28;20532;-75
2022/12/21 07:12:44;;;;;;;129.75;48.65;;;8.10;99.90;;;;;;5084331;28;20047;-75
2022/12/21 07:15:11;;;;;;;153.63;51.95;;;8.10;99.90;;;;;;5067529;28;20039;-74
2022/12/21 07:17:37;;;;;;;124.93;49.72;;;8.10;99.90;;;;;;5063485;28;20054;-75
2022/12/21 07:20:04;;;;;;;182.43;52.97;;;8.10;99.90;;;;;;5082582;28;20048;-74
2022/12/21 07:22:30;;;;;;;137.15;49.92;;;8.10;99.90;;;;;;5087718;28;20499;-75
2022/12/21 07:24:55;;;;;;;146.07;50.03;;;8.10;99.90;;;;;;5086941;28;20071;-75
2022/12/21 07:27:21;;;;;;;146.60;49.30;;;8.10;99.90;;;;;;5063516;28;20606;-74
2022/12/21 07:29:47;;;;;;;188.52;52.72;;;8.10;99.90;;;;;;5067672;28;20044;-75
2022/12/21 07:32:12;;;;;;;108.68;45.33;;;8.10;99.90;;;;;;5067456;28;20048;-75
2022/12/21 07:34:38;;;;;;;116.63;45.28;;;8.10;99.90;;;;;;5069614;28;20148;-75
2022/12/21 07:37:04;;;;;;;116.75;45.15;;;8.10;99.90;;;;;;5065203;28;20044;-74
2022/12/21 07:39:30;;;;;;;150.48;48.33;;;8.10;99.90;;;;;;5085492;28;20126;-75
2022/12/21 07:41:55;;;;;;;111.68;44.83;;;8.10;99.90;;;;;;5073077;28;20032;-75
2022/12/21 07:44:21;;;;;;;136.73;46.58;;;8.10;99.90;;;;;;5086042;28;20054;-76
2022/12/21 07:46:47;;;;;;;119.53;46.08;;;8.20;99.90;;;;;;5064851;28;20044;-75
2022/12/21 07:49:13;;;;;;;110.93;46.70;;;8.10;99.90;;;;;;5086027;28;20039;-75
2022/12/21 07:51:39;;;;;;;101.40;46.05;;;8.10;99.90;;;;;;5089905;28;20055;-75
2022/12/21 07:54:05;;;;;;;110.32;46.83;;;8.20;99.90;;;;;;5068025;28;20040;-75
2022/12/21 07:56:31;;;;;;;116.32;46.42;;;8.10;99.90;;;;;;5086205;28;20086;-75
2022/12/21 07:59:00;;;;;;;122.18;46.80;;;8.10;99.90;;;;;;5069048;28;20052;-75
2022/12/21 08:01:26;;;;;;;117.07;45.92;;;8.10;99.90;;;;;;5082691;28;20067;-75
2022/12/21 08:03:53;;;;;;;120.15;47.53;;;8.10;99.90;;;;;;5086588;28;20097;-74
2022/12/21 08:06:19;;;;;;;117.00;48.38;;;8.10;99.90;;;;;;5082810;28;20044;-77
2022/12/21 08:08:45;;;;;;;131.73;47.85;;;8.10;99.90;;;;;;5083403;28;20044;-75
2022/12/21 08:11:14;;;;;;;126.22;47.08;;;8.10;99.90;;;;;;5068587;28;20043;-77
2022/12/21 08:13:41;;;;;;;128.98;48.08;;;8.20;99.90;;;;;;5064164;28;20036;-76
2022/12/21 08:16:09;;;;;;;116.07;45.88;;;8.20;99.90;;;;;;5061689;28;20044;-87
2022/12/21 08:18:34;;;;;;;111.43;45.55;;;8.10;99.90;;;;;;5081777;28;20063;-79
2022/12/21 08:21:00;;;;;;;104.03;44.97;;;8.10;99.90;;;;;;5065588;28;20491;-78
2022/12/21 08:23:26;;;;;;;128.55;48.53;;;8.20;99.90;;;;;;5084931;28;20364;-79
2022/12/21 08:25:52;;;;;;;109.30;44.38;;;8.10;99.90;;;;;;5082392;28;20032;-77
2022/12/21 08:28:18;;;;;;;111.95;47.22;;;8.10;99.90;;;;;;5085302;28;20875;-77
2022/12/21 08:30:44;;;;;;;133.15;47.85;;;8.10;99.90;;;;;;5079655;28;20054;-77
2022/12/21 08:33:09;;;;;;;95.82;45.28;;;8.10;99.90;;;;;;5086000;28;20123;-77
2022/12/21 08:35:36;;;;;;;103.90;45.00;;;8.10;99.90;;;;;;5079734;28;20044;-77
2022/12/21 08:38:02;;;;;;;104.90;44.42;;;8.10;99.90;;;;;;5064186;28;20106;-77
2022/12/21 08:40:27;;;;;;;124.00;48.65;;;8.10;99.90;;;;;;5082825;28;20156;-74
2022/12/21 08:42:53;;;;;;;120.95;47.05;;;8.10;99.90;;;;;;5085760;28;20395;-75
2022/12/21 08:45:19;;;;;;;118.65;47.25;;;8.20;99.90;;;;;;5088165;28;20123;-74
2022/12/21 08:47:47;;;;;;;123.95;48.78;;;8.10;99.90;;;;;;5086749;28;20043;-77
2022/12/21 08:50:12;;;;;;;113.65;47.50;;;8.10;99.90;;;;;;5087092;28;20791;-75
2022/12/21 08:52:38;;;;;;;110.88;45.58;;;8.10;99.90;;;;;;5087437;28;20044;-76
2022/12/21 08:55:04;;;;;;;109.38;45.72;;;8.20;99.90;;;;;;5067719;28;20052;-76
2022/12/21 08:57:29;;;;;;;105.85;44.13;;;8.10;99.90;;;;;;5079209;28;20040;-76
2022/12/21 08:59:55;;;;;;;94.47;42.20;;;8.10;99.90;;;;;;5082348;28;20475;-78
2022/12/21 09:02:21;;;;;;;99.45;43.42;;;8.20;99.90;;;;;;5083854;28;20666;-75
2022/12/21 09:04:46;;;;;;;102.63;42.95;;;8.20;99.90;;;;;;5067269;28;20097;-73
2022/12/21 09:07:12;;;;;;;99.80;43.17;;;8.20;99.90;;;;;;5065731;28;20040;-73
2022/12/21 09:09:37;;;;;;;93.97;42.50;;;8.20;99.90;;;;;;5086706;28;20194;-77
2022/12/21 09:12:03;;;;;;;105.35;44.83;;;8.30;99.90;;;;;;5085588;28;20071;-75
2022/12/21 09:14:29;;;;;;;111.30;43.70;;;8.20;99.90;;;;;;5063846;28;20441;-75
2022/12/21 09:16:55;;;;;;;107.25;42.63;;;8.20;99.90;;;;;;5082510;28;20821;-76
2022/12/21 09:19:21;;;;;;;97.95;41.92;;;8.20;99.90;;;;;;5068773;28;20073;-84
2022/12/21 09:21:46;;;;;;;102.50;43.10;;;8.30;99.90;;;;;;5088211;28;20186;-79
2022/12/21 09:24:13;;;;;;;91.38;41.33;;;8.20;99.90;;;;;;5087483;28;20040;-79
2022/12/21 09:26:39;;;;;;;100.75;43.13;;;8.30;99.90;;;;;;5082085;28;20055;-75
2022/12/21 09:29:04;;;;;;;98.72;44.17;;;8.30;99.90;;;;;;5089196;28;20055;-78
2022/12/21 09:31:30;;;;;;;94.43;43.20;;;8.30;99.90;;;;;;5067659;28;20131;-76
2022/12/21 09:33:57;;;;;;;97.97;42.92;;;8.40;99.90;;;;;;5088717;28;20048;-79
2022/12/21 09:36:24;;;;;;;82.82;39.05;;;8.40;99.90;;;;;;5068559;28;20107;-78
2022/12/21 09:38:50;;;;;;;82.90;40.45;;;8.40;99.90;;;;;;5085623;28;20047;-77
2022/12/21 09:41:24;;;;;;;95.38;40.28;;;8.40;99.90;;;;;;5087907;28;20036;-77
2022/12/21 09:44:13;;;;;;;83.03;39.85;;;8.40;99.90;;;;;;5085343;28;20442;-80
2022/12/21 09:46:42;;;;;;;84.28;39.45;;;8.40;99.90;;;;;;5090837;28;20744;-73
2022/12/21 09:49:16;;;;;;;75.03;37.90;;;8.40;99.90;;;;;;5069597;28;20112;-75
2022/12/21 09:51:49;;;;;;;75.93;36.97;;;8.40;99.90;;;;;;5067655;28;20060;-74
2022/12/21 09:54:23;;;;;;;76.15;36.00;;;8.30;99.90;;;;;;5087507;28;20055;-75
2022/12/21 09:56:52;;;;;;;73.63;36.00;;;8.30;99.90;;;;;;5088373;28;20063;-74
2022/12/21 09:59:20;;;;;;;75.43;37.65;;;8.40;99.90;;;;;;5070824;28;20054;-74
2022/12/21 10:02:37;;;;;;;77.60;37.20;;;8.50;99.90;;;;;;5086244;28;20101;-75
2022/12/21 10:05:25;;;;;;;83.30;40.10;;;8.50;99.90;;;;;;5089123;28;20036;-74
2022/12/21 10:07:57;;;;;;;75.18;38.35;;;8.50;99.90;;;;;;5075388;28;20078;-75
2022/12/21 10:10:45;;;;;;;73.68;38.58;;;8.60;99.90;;;;;;5088925;28;20651;-75
2022/12/21 10:13:30;;;;;;;77.78;37.90;;;8.60;99.90;;;;;;5105153;28;20524;-74
2022/12/21 10:16:33;;;;;;;76.95;38.83;;;8.70;99.90;;;;;;5080683;28;20055;-76
2022/12/21 10:19:08;;;;;;;73.45;38.90;;;8.70;99.90;;;;;;5086409;28;20123;-75
2022/12/21 10:22:00;;;;;;;80.30;40.15;;;8.60;99.90;;;;;;5067218;28;20600;-78
2022/12/21 10:24:31;;;;;;;84.15;41.80;;;8.70;99.90;;;;;;5083374;28;20058;-76
2022/12/21 10:27:40;;;;;;;78.78;39.92;;;8.70;99.90;;;;;;5087468;28;20086;-77
2022/12/21 10:30:12;;;;;;;80.30;41.25;;;8.70;99.90;;;;;;5068807;28;20479;-74
2022/12/21 10:32:42;;;;;;;74.80;38.10;;;8.60;99.90;;;;;;5085047;28;20089;-80
2022/12/21 10:35:18;;;;;;;71.68;36.85;;;8.70;99.90;;;;;;5088601;28;20062;-83
2022/12/21 10:37:50;;;;;;;69.90;37.37;;;8.70;99.90;;;;;;5069984;28;20055;-83
2022/12/21 10:40:17;;;;;;;70.22;37.05;;;8.70;99.90;;;;;;5087669;28;20115;-83
2022/12/21 10:42:45;;;;;;;66.90;37.07;;;8.70;99.90;;;;;;5068868;28;20147;-83
2022/12/21 10:45:13;;;;;;;67.57;36.58;;;8.60;99.90;;;;;;5088693;28;20048;-82
2022/12/21 10:47:44;;;;;;;60.55;32.05;;;8.70;99.90;;;;;;5086703;28;20040;-85
2022/12/21 10:50:28;;;;;;;61.08;33.33;;;8.70;99.90;;;;;;5086358;28;20130;-87
2022/12/21 10:52:56;;;;;;;58.88;31.80;;;8.70;99.90;;;;;;5067554;28;20513;-84
2022/12/21 10:55:22;;;;;;;61.58;33.40;;;8.70;99.90;;;;;;5087352;28;20130;-82
2022/12/21 10:57:49;;;;;;;62.20;33.63;;;8.80;99.90;;;;;;5087255;28;20043;-83
2022/12/21 11:00:25;;;;;;;64.88;32.45;;;8.70;99.90;;;;;;5070170;28;20078;-84
2022/12/21 11:02:56;;;;;;;62.92;33.00;;;8.80;99.90;;;;;;5084103;28;20130;-81
2022/12/21 11:05:30;;;;;;;62.97;32.88;;;8.80;99.90;;;;;;5087264;28;20076;-87
2022/12/21 11:08:18;;;;;;;62.70;33.17;;;8.80;99.90;;;;;;5088011;28;20044;-79
2022/12/21 11:10:50;;;;;;;62.55;32.65;;;8.90;99.90;;;;;;5065196;28;20052;-79
2022/12/21 11:13:18;;;;;;;63.83;32.60;;;8.80;99.90;;;;;;5084311;28;20487;-78
2022/12/21 11:16:04;;;;;;;61.22;32.80;;;8.90;99.90;;;;;;5079894;28;20093;-77
2022/12/21 11:18:36;;;;;;;65.47;33.57;;;8.90;99.90;;;;;;5087806;28;20439;-77
2022/12/21 11:21:04;;;;;;;63.53;33.60;;;8.90;99.90;;;;;;5069013;28;20443;-77
2022/12/21 11:23:31;;;;;;;65.10;34.00;;;8.90;99.90;;;;;;5087464;28;20074;-77
2022/12/21 11:25:57;;;;;;;65.55;33.60;;;8.90;99.90;;;;;;5086731;28;20399;-77
2022/12/21 11:28:24;;;;;;;66.78;34.28;;;8.90;99.90;;;;;;5102878;28;20047;-77
2022/12/21 11:30:54;;;;;;;64.60;33.70;;;8.90;99.90;;;;;;5066782;28;20446;-77
2022/12/21 11:33:21;;;;;;;65.35;35.00;;;9.00;99.90;;;;;;5086479;28;20862;-77
2022/12/21 11:36:12;;;;;;;71.10;35.67;;;9.00;99.90;;;;;;5084838;28;20103;-76
2022/12/21 11:38:39;;;;;;;71.88;35.67;;;9.00;99.90;;;;;;5081720;28;20475;-78
2022/12/21 11:41:26;;;;;;;73.50;37.47;;;9.10;99.90;;;;;;5088450;28;20036;-84
2022/12/21 11:43:52;;;;;;;;;;;9.10;99.90;;;;;;5091242;28;20454;-77
2022/12/21 11:46:17;;;;;;;78.03;39.30;;;9.10;99.90;;;;;;5088126;28;19927;-78
2022/12/21 11:49:14;;;;;;;68.13;38.75;;;9.10;99.90;;;;;;5084336;28;20044;-79
2022/12/21 11:52:05;;;;;;;74.90;39.35;;;9.20;99.90;;;;;;5098069;27;20061;-79
2022/12/21 11:54:36;;;;;;;73.38;38.22;;;9.20;99.90;;;;;;5089185;28;20082;-82
2022/12/21 11:57:49;;;;;;;70.43;38.83;;;9.20;99.90;;;;;;5070851;28;20127;-80
2022/12/21 12:00:21;;;;;;;72.65;39.75;;;9.20;99.90;;;;;;4955257;28;20078;-78
2022/12/21 12:03:00;;;;;;;72.18;41.25;;;9.20;99.90;;;;;;4981028;28;20490;-78
2022/12/21 12:05:47;;;;;;;76.50;40.65;;;9.20;99.90;;;;;;5024749;28;20070;-77
2022/12/21 12:08:34;;;;;;;75.50;41.50;;;9.20;99.90;;;;;;5083024;28;20079;-73
2022/12/21 12:11:03;;;;;;;79.53;40.88;;;9.20;99.90;;;;;;5087512;28;20047;-73
2022/12/21 12:13:53;;;;;;;75.50;41.05;;;9.10;99.90;;;;;;5068763;28;20450;-72
2022/12/21 12:16:34;;;;;;;72.60;40.15;;;9.20;99.90;;;;;;5087669;28;20373;-73
2022/12/21 12:19:22;;;;;;;71.70;41.35;;;9.10;99.90;;;;;;5086214;28;20040;-73
2022/12/21 12:22:15;;;;;;;69.80;38.35;;;9.10;99.90;;;;;;5085680;28;20044;-73
2022/12/21 12:24:51;;;;;;;75.13;39.70;;;9.10;99.90;;;;;;5074418;28;20120;-73
2022/12/21 12:27:43;;;;;;;69.20;39.58;;;9.10;99.90;;;;;;5068158;28;20044;-73
2022/12/21 12:30:20;;;;;;;71.47;39.75;;;9.10;99.90;;;;;;5042580;28;20052;-73
2022/12/21 12:33:17;;;;;;;72.70;39.47;;;9.10;99.90;;;;;;5088536;28;20051;-73
2022/12/21 12:35:48;;;;;;;71.07;37.90;;;9.00;99.90;;;;;;5086129;28;20059;-73
2022/12/21 12:38:21;;;;;;;69.95;39.10;;;9.00;99.90;;;;;;5086696;28;20124;-73
2022/12/21 12:41:03;;;;;;;64.10;37.83;;;9.00;99.90;;;;;;5085221;28;20048;-73
2022/12/21 12:43:47;;;;;;;73.10;38.05;;;8.90;99.90;;;;;;5084918;28;20131;-73
2022/12/21 12:46:23;;;;;;;67.07;37.58;;;9.00;99.90;;;;;;5064964;28;20122;-73
2022/12/21 12:49:19;;;;;;;73.97;40.63;;;8.90;99.90;;;;;;5082073;28;20316;-72
2022/12/21 12:52:22;;;;;;;65.32;37.45;;;8.90;99.90;;;;;;5070531;28;21204;-72
2022/12/21 12:55:14;;;;;;;68.35;39.22;;;9.00;99.90;;;;;;5069420;28;20048;-76
2022/12/21 12:58:04;;;;;;;62.80;36.90;;;9.00;99.90;;;;;;5083908;28;20229;-84
2022/12/21 13:00:39;;;;;;;64.97;37.78;;;9.00;99.90;;;;;;5080665;28;20416;-77
2022/12/21 13:03:20;;;;;;;66.65;38.65;;;9.00;99.90;;;;;;5087506;28;20471;-77
2022/12/21 13:06:17;;;;;;;61.65;37.67;;;9.00;99.90;;;;;;5090641;28;20044;-80
2022/12/21 13:09:13;;;;;;;62.15;37.83;;;9.00;99.90;;;;;;4997262;28;20069;-78